Urb Highland Gdns, Puerto Rico
Current Conditions -  °F | °C
As of 9:50 AM on Thursday 29 Jan 2015 (Local Time) from TJIG Reporting Station
Scattered Clouds Scattered Clouds  
Wind Chill: 81°   Ceiling: Unl
Heat Index: 85°   Visibility: 10mi
Dew Point: 72°   Wind: 0mph
Humidity: 74%   Direction: NA
Pressure: 30.08"   Gusts: NA
Location:  18.3866°N, 66.1135°W
Report Text: TJIG 291350Z 00000KT 10SM SCT040 27/22 A3008 RMK RY09 IN USE ATIS D
Loading
Personal Weather Stations






























Interactive Weather Map New forecast layout! Learn more

10-Day Weather Forecast

Advertisements
Track Severe Weather on mobile